sensor_id;sensor_type;location;lat;lon;timestamp;P1;durP1;ratioP1;P2;durP2;ratioP2
31798;SDS011;18374;51.136;3.502;2023-03-01T00:01:43;11.48;;;6.57;;
31798;SDS011;18374;51.136;3.502;2023-03-01T00:04:11;11.80;;;6.72;;
31798;SDS011;18374;51.136;3.502;2023-03-01T00:06:38;10.60;;;6.03;;
31798;SDS011;18374;51.136;3.502;2023-03-01T00:09:06;9.75;;;6.53;;
31798;SDS011;18374;51.136;3.502;2023-03-01T00:11:34;12.65;;;6.47;;
31798;SDS011;18374;51.136;3.502;2023-03-01T00:14:02;12.18;;;6.50;;
31798;SDS011;18374;51.136;3.502;2023-03-01T00:16:34;11.50;;;6.40;;
31798;SDS011;18374;51.136;3.502;2023-03-01T00:19:07;10.88;;;6.38;;
31798;SDS011;18374;51.136;3.502;2023-03-01T00:21:41;9.52;;;6.28;;
31798;SDS011;18374;51.136;3.502;2023-03-01T00:24:09;9.20;;;6.40;;
31798;SDS011;18374;51.136;3.502;2023-03-01T00:26:37;11.73;;;7.07;;
31798;SDS011;18374;51.136;3.502;2023-03-01T00:29:05;13.85;;;7.30;;
31798;SDS011;18374;51.136;3.502;2023-03-01T00:31:34;13.60;;;7.63;;
31798;SDS011;18374;51.136;3.502;2023-03-01T00:34:03;15.95;;;7.82;;
31798;SDS011;18374;51.136;3.502;2023-03-01T00:36:33;11.52;;;6.60;;
31798;SDS011;18374;51.136;3.502;2023-03-01T00:39:04;13.43;;;7.22;;
31798;SDS011;18374;51.136;3.502;2023-03-01T00:41:36;12.55;;;8.32;;
31798;SDS011;18374;51.136;3.502;2023-03-01T00:44:04;13.50;;;7.20;;
31798;SDS011;18374;51.136;3.502;2023-03-01T00:46:34;11.52;;;7.45;;
31798;SDS011;18374;51.136;3.502;2023-03-01T00:49:02;12.55;;;7.50;;
31798;SDS011;18374;51.136;3.502;2023-03-01T00:51:31;11.57;;;7.35;;
31798;SDS011;18374;51.136;3.502;2023-03-01T00:54:00;12.15;;;7.20;;
31798;SDS011;18374;51.136;3.502;2023-03-01T00:56:30;13.20;;;7.70;;
31798;SDS011;18374;51.136;3.502;2023-03-01T00:58:58;12.07;;;7.35;;
31798;SDS011;18374;51.136;3.502;2023-03-01T01:01:27;12.65;;;8.13;;
31798;SDS011;18374;51.136;3.502;2023-03-01T01:03:58;13.52;;;7.72;;
31798;SDS011;18374;51.136;3.502;2023-03-01T01:06:33;12.27;;;7.82;;
31798;SDS011;18374;51.136;3.502;2023-03-01T01:09:06;13.80;;;7.80;;
31798;SDS011;18374;51.136;3.502;2023-03-01T01:11:35;14.45;;;8.10;;
31798;SDS011;18374;51.136;3.502;2023-03-01T01:14:03;11.93;;;7.65;;
31798;SDS011;18374;51.136;3.502;2023-03-01T01:16:31;13.10;;;8.45;;
31798;SDS011;18374;51.136;3.502;2023-03-01T01:19:01;16.30;;;8.40;;
31798;SDS011;18374;51.136;3.502;2023-03-01T01:21:29;13.18;;;8.00;;
31798;SDS011;18374;51.136;3.502;2023-03-01T01:23:57;12.32;;;7.90;;
31798;SDS011;18374;51.136;3.502;2023-03-01T01:26:26;11.88;;;7.80;;
31798;SDS011;18374;51.136;3.502;2023-03-01T01:28:58;11.80;;;7.88;;
31798;SDS011;18374;51.136;3.502;2023-03-01T01:31:27;11.77;;;7.63;;
31798;SDS011;18374;51.136;3.502;2023-03-01T01:33:57;12.65;;;8.27;;
31798;SDS011;18374;51.136;3.502;2023-03-01T01:36:27;13.13;;;8.73;;
31798;SDS011;18374;51.136;3.502;2023-03-01T01:38:56;15.63;;;8.85;;
31798;SDS011;18374;51.136;3.502;2023-03-01T01:41:25;16.88;;;9.38;;
31798;SDS011;18374;51.136;3.502;2023-03-01T01:49:37;12.88;;;8.93;;
31798;SDS011;18374;51.136;3.502;2023-03-01T01:57:16;16.13;;;10.05;;
31798;SDS011;18374;51.136;3.502;2023-03-01T01:59:52;15.75;;;10.25;;
31798;SDS011;18374;51.136;3.502;2023-03-01T02:02:23;16.80;;;10.95;;
31798;SDS011;18374;51.136;3.502;2023-03-01T02:04:54;21.10;;;10.75;;
31798;SDS011;18374;51.136;3.502;2023-03-01T02:07:38;19.77;;;11.17;;
31798;SDS011;18374;51.136;3.502;2023-03-01T02:10:07;18.13;;;10.65;;
31798;SDS011;18374;51.136;3.502;2023-03-01T02:12:35;17.63;;;10.20;;
31798;SDS011;18374;51.136;3.502;2023-03-01T02:15:05;17.77;;;11.20;;
31798;SDS011;18374;51.136;3.502;2023-03-01T02:17:33;20.83;;;11.43;;
31798;SDS011;18374;51.136;3.502;2023-03-01T02:22:56;17.65;;;10.68;;
31798;SDS011;18374;51.136;3.502;2023-03-01T02:30:51;18.63;;;11.20;;
31798;SDS011;18374;51.136;3.502;2023-03-01T02:33:39;19.65;;;12.10;;
31798;SDS011;18374;51.136;3.502;2023-03-01T02:36:10;21.88;;;11.63;;
31798;SDS011;18374;51.136;3.502;2023-03-01T02:38:43;19.75;;;12.30;;
31798;SDS011;18374;51.136;3.502;2023-03-01T02:41:13;20.70;;;11.57;;
31798;SDS011;18374;51.136;3.502;2023-03-01T02:43:43;21.45;;;11.35;;
31798;SDS011;18374;51.136;3.502;2023-03-01T02:46:16;18.00;;;11.57;;
31798;SDS011;18374;51.136;3.502;2023-03-01T02:48:52;23.73;;;12.82;;
31798;SDS011;18374;51.136;3.502;2023-03-01T02:57:40;21.58;;;11.73;;
31798;SDS011;18374;51.136;3.502;2023-03-01T03:00:16;19.75;;;11.52;;
31798;SDS011;18374;51.136;3.502;2023-03-01T03:02:53;21.67;;;11.57;;
31798;SDS011;18374;51.136;3.502;2023-03-01T03:05:26;19.95;;;12.18;;
31798;SDS011;18374;51.136;3.502;2023-03-01T03:07:58;20.90;;;12.48;;
31798;SDS011;18374;51.136;3.502;2023-03-01T03:10:35;22.73;;;12.27;;
31798;SDS011;18374;51.136;3.502;2023-03-01T03:13:08;19.83;;;11.90;;
31798;SDS011;18374;51.136;3.502;2023-03-01T03:15:39;21.92;;;12.68;;
31798;SDS011;18374;51.136;3.502;2023-03-01T03:18:09;21.20;;;11.93;;
31798;SDS011;18374;51.136;3.502;2023-03-01T03:20:43;21.20;;;12.40;;
31798;SDS011;18374;51.136;3.502;2023-03-01T03:23:11;24.73;;;12.38;;
31798;SDS011;18374;51.136;3.502;2023-03-01T03:25:40;23.15;;;12.70;;
31798;SDS011;18374;51.136;3.502;2023-03-01T03:28:07;20.65;;;13.25;;
31798;SDS011;18374;51.136;3.502;2023-03-01T03:30:39;23.42;;;13.50;;
31798;SDS011;18374;51.136;3.502;2023-03-01T03:33:09;21.85;;;12.98;;
31798;SDS011;18374;51.136;3.502;2023-03-01T03:35:41;24.55;;;13.88;;
31798;SDS011;18374;51.136;3.502;2023-03-01T03:38:15;21.27;;;12.93;;
31798;SDS011;18374;51.136;3.502;2023-03-01T03:40:50;26.23;;;14.52;;
31798;SDS011;18374;51.136;3.502;2023-03-01T03:43:28;21.08;;;13.45;;
31798;SDS011;18374;51.136;3.502;2023-03-01T03:45:58;22.42;;;13.05;;
31798;SDS011;18374;51.136;3.502;2023-03-01T03:48:27;24.35;;;13.30;;
31798;SDS011;18374;51.136;3.502;2023-03-01T03:50:55;24.15;;;14.10;;
31798;SDS011;18374;51.136;3.502;2023-03-01T03:53:24;21.92;;;13.20;;
31798;SDS011;18374;51.136;3.502;2023-03-01T03:55:54;21.20;;;12.98;;
31798;SDS011;18374;51.136;3.502;2023-03-01T03:58:23;24.08;;;13.02;;
31798;SDS011;18374;51.136;3.502;2023-03-01T04:00:53;24.92;;;12.75;;
31798;SDS011;18374;51.136;3.502;2023-03-01T04:03:24;23.13;;;13.23;;
31798;SDS011;18374;51.136;3.502;2023-03-01T04:05:53;24.77;;;12.82;;
31798;SDS011;18374;51.136;3.502;2023-03-01T04:08:24;20.45;;;12.13;;
31798;SDS011;18374;51.136;3.502;2023-03-01T04:10:57;21.75;;;13.38;;
31798;SDS011;18374;51.136;3.502;2023-03-01T04:13:47;24.88;;;12.93;;
31798;SDS011;18374;51.136;3.502;2023-03-01T04:16:15;23.77;;;13.70;;
31798;SDS011;18374;51.136;3.502;2023-03-01T04:18:44;24.85;;;13.30;;
31798;SDS011;18374;51.136;3.502;2023-03-01T04:21:12;23.55;;;12.77;;
31798;SDS011;18374;51.136;3.502;2023-03-01T04:23:40;21.85;;;13.57;;
31798;SDS011;18374;51.136;3.502;2023-03-01T04:26:08;20.52;;;11.52;;
31798;SDS011;18374;51.136;3.502;2023-03-01T04:28:37;23.15;;;12.52;;
31798;SDS011;18374;51.136;3.502;2023-03-01T04:31:08;21.27;;;11.73;;
31798;SDS011;18374;51.136;3.502;2023-03-01T04:33:52;23.52;;;12.98;;
31798;SDS011;18374;51.136;3.502;2023-03-01T04:36:24;28.55;;;13.70;;
31798;SDS011;18374;51.136;3.502;2023-03-01T04:38:54;22.27;;;13.13;;
31798;SDS011;18374;51.136;3.502;2023-03-01T04:41:23;25.67;;;13.77;;
31798;SDS011;18374;51.136;3.502;2023-03-01T04:43:52;22.92;;;12.80;;
31798;SDS011;18374;51.136;3.502;2023-03-01T04:46:20;24.17;;;13.23;;
31798;SDS011;18374;51.136;3.502;2023-03-01T04:48:49;21.75;;;12.48;;
31798;SDS011;18374;51.136;3.502;2023-03-01T04:51:17;21.83;;;12.35;;
31798;SDS011;18374;51.136;3.502;2023-03-01T04:53:45;22.55;;;12.57;;
31798;SDS011;18374;51.136;3.502;2023-03-01T04:56:13;20.17;;;11.88;;
31798;SDS011;18374;51.136;3.502;2023-03-01T04:58:41;22.67;;;12.70;;
31798;SDS011;18374;51.136;3.502;2023-03-01T05:01:10;21.67;;;12.35;;
31798;SDS011;18374;51.136;3.502;2023-03-01T05:03:43;24.27;;;12.23;;
31798;SDS011;18374;51.136;3.502;2023-03-01T05:06:15;22.65;;;11.95;;
31798;SDS011;18374;51.136;3.502;2023-03-01T05:08:45;19.85;;;12.07;;
31798;SDS011;18374;51.136;3.502;2023-03-01T05:11:13;18.75;;;11.52;;
31798;SDS011;18374;51.136;3.502;2023-03-01T05:13:41;24.40;;;12.50;;
31798;SDS011;18374;51.136;3.502;2023-03-01T05:16:09;23.25;;;13.10;;
31798;SDS011;18374;51.136;3.502;2023-03-01T05:18:39;21.08;;;12.82;;
31798;SDS011;18374;51.136;3.502;2023-03-01T05:21:09;21.42;;;12.38;;
31798;SDS011;18374;51.136;3.502;2023-03-01T05:23:39;26.85;;;12.77;;
31798;SDS011;18374;51.136;3.502;2023-03-01T05:26:07;22.55;;;12.10;;
31798;SDS011;18374;51.136;3.502;2023-03-01T05:31:26;24.02;;;11.52;;
31798;SDS011;18374;51.136;3.502;2023-03-01T05:33:54;23.85;;;12.32;;
31798;SDS011;18374;51.136;3.502;2023-03-01T05:36:22;22.98;;;12.38;;
31798;SDS011;18374;51.136;3.502;2023-03-01T05:38:49;25.98;;;12.68;;
31798;SDS011;18374;51.136;3.502;2023-03-01T05:41:17;27.10;;;12.40;;
31798;SDS011;18374;51.136;3.502;2023-03-01T05:43:45;21.00;;;11.82;;
31798;SDS011;18374;51.136;3.502;2023-03-01T05:46:13;25.25;;;12.50;;
31798;SDS011;18374;51.136;3.502;2023-03-01T05:48:42;23.45;;;12.98;;
31798;SDS011;18374;51.136;3.502;2023-03-01T05:51:10;26.55;;;13.40;;
31798;SDS011;18374;51.136;3.502;2023-03-01T05:53:39;22.30;;;12.40;;
31798;SDS011;18374;51.136;3.502;2023-03-01T05:56:06;22.55;;;12.73;;
31798;SDS011;18374;51.136;3.502;2023-03-01T05:58:34;20.67;;;12.07;;
31798;SDS011;18374;51.136;3.502;2023-03-01T06:01:02;19.30;;;11.45;;
31798;SDS011;18374;51.136;3.502;2023-03-01T06:03:30;18.95;;;11.20;;
31798;SDS011;18374;51.136;3.502;2023-03-01T06:05:58;21.30;;;12.40;;
31798;SDS011;18374;51.136;3.502;2023-03-01T06:08:25;20.30;;;11.38;;
31798;SDS011;18374;51.136;3.502;2023-03-01T06:10:54;24.13;;;12.50;;
31798;SDS011;18374;51.136;3.502;2023-03-01T06:13:22;22.10;;;12.55;;
31798;SDS011;18374;51.136;3.502;2023-03-01T06:15:51;21.60;;;11.68;;
31798;SDS011;18374;51.136;3.502;2023-03-01T06:18:19;22.70;;;12.25;;
31798;SDS011;18374;51.136;3.502;2023-03-01T06:20:52;19.08;;;11.25;;
31798;SDS011;18374;51.136;3.502;2023-03-01T06:23:22;24.87;;;13.03;;
31798;SDS011;18374;51.136;3.502;2023-03-01T06:25:50;20.33;;;11.73;;
31798;SDS011;18374;51.136;3.502;2023-03-01T06:28:18;28.30;;;12.40;;
31798;SDS011;18374;51.136;3.502;2023-03-01T06:30:46;19.55;;;12.18;;
31798;SDS011;18374;51.136;3.502;2023-03-01T06:33:15;24.73;;;13.27;;
31798;SDS011;18374;51.136;3.502;2023-03-01T06:35:42;26.08;;;13.23;;
31798;SDS011;18374;51.136;3.502;2023-03-01T06:38:10;24.83;;;13.55;;
31798;SDS011;18374;51.136;3.502;2023-03-01T06:40:38;24.40;;;13.95;;
31798;SDS011;18374;51.136;3.502;2023-03-01T06:43:05;23.83;;;12.38;;
31798;SDS011;18374;51.136;3.502;2023-03-01T06:45:34;24.75;;;13.13;;
31798;SDS011;18374;51.136;3.502;2023-03-01T06:48:06;25.35;;;13.35;;
31798;SDS011;18374;51.136;3.502;2023-03-01T06:50:35;20.77;;;12.18;;
31798;SDS011;18374;51.136;3.502;2023-03-01T06:53:03;22.60;;;12.40;;
31798;SDS011;18374;51.136;3.502;2023-03-01T06:55:31;19.48;;;12.27;;
31798;SDS011;18374;51.136;3.502;2023-03-01T06:57:59;25.50;;;13.48;;
31798;SDS011;18374;51.136;3.502;2023-03-01T07:00:29;20.77;;;11.90;;
31798;SDS011;18374;51.136;3.502;2023-03-01T07:03:00;26.77;;;12.20;;
31798;SDS011;18374;51.136;3.502;2023-03-01T07:05:30;26.55;;;12.88;;
31798;SDS011;18374;51.136;3.502;2023-03-01T07:07:58;23.73;;;12.52;;
31798;SDS011;18374;51.136;3.502;2023-03-01T07:10:26;22.25;;;12.70;;
31798;SDS011;18374;51.136;3.502;2023-03-01T07:12:54;21.98;;;11.50;;
31798;SDS011;18374;51.136;3.502;2023-03-01T07:15:24;22.60;;;11.95;;
31798;SDS011;18374;51.136;3.502;2023-03-01T07:17:53;21.52;;;11.85;;
31798;SDS011;18374;51.136;3.502;2023-03-01T07:20:21;26.33;;;12.30;;
31798;SDS011;18374;51.136;3.502;2023-03-01T07:22:52;24.90;;;12.27;;
31798;SDS011;18374;51.136;3.502;2023-03-01T07:25:21;21.73;;;11.20;;
31798;SDS011;18374;51.136;3.502;2023-03-01T07:27:50;20.95;;;11.52;;
31798;SDS011;18374;51.136;3.502;2023-03-01T07:30:19;19.90;;;11.00;;
31798;SDS011;18374;51.136;3.502;2023-03-01T07:32:48;22.13;;;10.98;;
31798;SDS011;18374;51.136;3.502;2023-03-01T07:35:16;18.77;;;11.68;;
31798;SDS011;18374;51.136;3.502;2023-03-01T07:37:44;21.17;;;11.77;;
31798;SDS011;18374;51.136;3.502;2023-03-01T07:40:12;23.90;;;12.25;;
31798;SDS011;18374;51.136;3.502;2023-03-01T07:42:40;20.85;;;11.68;;
31798;SDS011;18374;51.136;3.502;2023-03-01T07:45:08;21.95;;;11.30;;
31798;SDS011;18374;51.136;3.502;2023-03-01T07:47:37;22.55;;;11.35;;
31798;SDS011;18374;51.136;3.502;2023-03-01T07:50:04;23.27;;;11.73;;
31798;SDS011;18374;51.136;3.502;2023-03-01T07:52:33;21.65;;;12.15;;
31798;SDS011;18374;51.136;3.502;2023-03-01T07:55:01;23.92;;;11.48;;
31798;SDS011;18374;51.136;3.502;2023-03-01T07:57:28;25.88;;;12.45;;
31798;SDS011;18374;51.136;3.502;2023-03-01T07:59:56;25.17;;;11.52;;
31798;SDS011;18374;51.136;3.502;2023-03-01T08:02:24;24.98;;;12.43;;
31798;SDS011;18374;51.136;3.502;2023-03-01T08:04:51;24.02;;;12.80;;
31798;SDS011;18374;51.136;3.502;2023-03-01T08:07:19;20.73;;;12.25;;
31798;SDS011;18374;51.136;3.502;2023-03-01T08:09:47;26.42;;;12.63;;
31798;SDS011;18374;51.136;3.502;2023-03-01T08:12:14;23.50;;;11.60;;
31798;SDS011;18374;51.136;3.502;2023-03-01T08:14:43;23.38;;;12.35;;
31798;SDS011;18374;51.136;3.502;2023-03-01T08:17:13;21.58;;;11.35;;
31798;SDS011;18374;51.136;3.502;2023-03-01T08:19:42;20.58;;;10.88;;
31798;SDS011;18374;51.136;3.502;2023-03-01T08:22:10;22.38;;;11.10;;
31798;SDS011;18374;51.136;3.502;2023-03-01T08:24:37;20.90;;;11.57;;
31798;SDS011;18374;51.136;3.502;2023-03-01T08:27:05;21.58;;;11.25;;
31798;SDS011;18374;51.136;3.502;2023-03-01T08:29:33;21.75;;;11.75;;
31798;SDS011;18374;51.136;3.502;2023-03-01T08:32:01;25.17;;;11.93;;
31798;SDS011;18374;51.136;3.502;2023-03-01T08:34:29;21.88;;;10.95;;
31798;SDS011;18374;51.136;3.502;2023-03-01T08:36:58;17.17;;;10.48;;
31798;SDS011;18374;51.136;3.502;2023-03-01T08:39:25;17.95;;;9.77;;
31798;SDS011;18374;51.136;3.502;2023-03-01T08:41:53;22.13;;;9.95;;
31798;SDS011;18374;51.136;3.502;2023-03-01T08:44:21;19.35;;;9.68;;
31798;SDS011;18374;51.136;3.502;2023-03-01T08:46:49;16.35;;;8.68;;
31798;SDS011;18374;51.136;3.502;2023-03-01T08:49:19;16.27;;;8.57;;
31798;SDS011;18374;51.136;3.502;2023-03-01T08:51:47;15.75;;;8.70;;
31798;SDS011;18374;51.136;3.502;2023-03-01T08:54:16;16.48;;;8.20;;
31798;SDS011;18374;51.136;3.502;2023-03-01T08:56:46;15.52;;;8.52;;
31798;SDS011;18374;51.136;3.502;2023-03-01T08:59:15;15.18;;;7.65;;
31798;SDS011;18374;51.136;3.502;2023-03-01T09:01:44;12.25;;;7.13;;
31798;SDS011;18374;51.136;3.502;2023-03-01T09:04:12;21.65;;;9.55;;
31798;SDS011;18374;51.136;3.502;2023-03-01T09:06:41;15.80;;;7.80;;
31798;SDS011;18374;51.136;3.502;2023-03-01T09:09:14;13.23;;;7.45;;
31798;SDS011;18374;51.136;3.502;2023-03-01T09:11:43;16.40;;;7.65;;
31798;SDS011;18374;51.136;3.502;2023-03-01T09:14:17;20.80;;;8.73;;
31798;SDS011;18374;51.136;3.502;2023-03-01T09:16:44;13.18;;;7.15;;
31798;SDS011;18374;51.136;3.502;2023-03-01T09:19:13;15.32;;;7.15;;
31798;SDS011;18374;51.136;3.502;2023-03-01T09:21:41;27.77;;;8.38;;
31798;SDS011;18374;51.136;3.502;2023-03-01T09:24:20;13.48;;;6.55;;
31798;SDS011;18374;51.136;3.502;2023-03-01T09:26:52;18.85;;;7.88;;
31798;SDS011;18374;51.136;3.502;2023-03-01T09:29:22;13.35;;;6.90;;
31798;SDS011;18374;51.136;3.502;2023-03-01T09:31:50;10.75;;;6.50;;
31798;SDS011;18374;51.136;3.502;2023-03-01T09:34:18;11.20;;;5.93;;
31798;SDS011;18374;51.136;3.502;2023-03-01T09:36:50;8.25;;;5.80;;
31798;SDS011;18374;51.136;3.502;2023-03-01T09:39:18;11.88;;;5.78;;
31798;SDS011;18374;51.136;3.502;2023-03-01T09:41:49;10.30;;;5.50;;
31798;SDS011;18374;51.136;3.502;2023-03-01T09:46:58;9.75;;;5.70;;
31798;SDS011;18374;51.136;3.502;2023-03-01T09:49:28;10.95;;;5.82;;
31798;SDS011;18374;51.136;3.502;2023-03-01T09:52:17;11.48;;;5.10;;
31798;SDS011;18374;51.136;3.502;2023-03-01T09:54:54;10.63;;;5.93;;
31798;SDS011;18374;51.136;3.502;2023-03-01T09:57:36;9.52;;;5.53;;
31798;SDS011;18374;51.136;3.502;2023-03-01T10:05:52;11.15;;;5.35;;
31798;SDS011;18374;51.136;3.502;2023-03-01T10:08:33;9.80;;;5.20;;
31798;SDS011;18374;51.136;3.502;2023-03-01T10:11:25;10.68;;;5.05;;
31798;SDS011;18374;51.136;3.502;2023-03-01T10:14:02;7.43;;;4.97;;
31798;SDS011;18374;51.136;3.502;2023-03-01T10:16:52;9.27;;;4.60;;
31798;SDS011;18374;51.136;3.502;2023-03-01T10:24:45;7.97;;;4.65;;
31798;SDS011;18374;51.136;3.502;2023-03-01T10:29:54;8.40;;;4.53;;
31798;SDS011;18374;51.136;3.502;2023-03-01T10:32:43;8.02;;;4.53;;
31798;SDS011;18374;51.136;3.502;2023-03-01T10:35:19;7.68;;;4.93;;
31798;SDS011;18374;51.136;3.502;2023-03-01T10:37:58;9.40;;;4.63;;
31798;SDS011;18374;51.136;3.502;2023-03-01T10:40:36;7.03;;;4.47;;
31798;SDS011;18374;51.136;3.502;2023-03-01T10:43:18;9.98;;;4.45;;
31798;SDS011;18374;51.136;3.502;2023-03-01T10:45:47;8.77;;;4.25;;
31798;SDS011;18374;51.136;3.502;2023-03-01T10:50:51;7.70;;;4.63;;
31798;SDS011;18374;51.136;3.502;2023-03-01T10:56:12;7.50;;;4.07;;
31798;SDS011;18374;51.136;3.502;2023-03-01T10:58:58;5.90;;;3.50;;
31798;SDS011;18374;51.136;3.502;2023-03-01T11:01:32;7.20;;;3.45;;
31798;SDS011;18374;51.136;3.502;2023-03-01T11:06:34;6.72;;;3.90;;
31798;SDS011;18374;51.136;3.502;2023-03-01T11:09:39;7.50;;;4.38;;
31798;SDS011;18374;51.136;3.502;2023-03-01T11:12:05;9.93;;;3.92;;
31798;SDS011;18374;51.136;3.502;2023-03-01T11:14:51;6.97;;;4.13;;
31798;SDS011;18374;51.136;3.502;2023-03-01T11:17:26;7.95;;;4.20;;
31798;SDS011;18374;51.136;3.502;2023-03-01T11:20:01;6.50;;;4.25;;
31798;SDS011;18374;51.136;3.502;2023-03-01T11:25:19;8.75;;;4.00;;
31798;SDS011;18374;51.136;3.502;2023-03-01T11:27:53;7.27;;;3.90;;
31798;SDS011;18374;51.136;3.502;2023-03-01T11:30:27;7.43;;;4.40;;
31798;SDS011;18374;51.136;3.502;2023-03-01T11:33:39;7.43;;;3.92;;
31798;SDS011;18374;51.136;3.502;2023-03-01T11:45:23;6.28;;;3.88;;
31798;SDS011;18374;51.136;3.502;2023-03-01T11:51:59;7.10;;;4.35;;
31798;SDS011;18374;51.136;3.502;2023-03-01T12:11:05;7.47;;;4.80;;
31798;SDS011;18374;51.136;3.502;2023-03-01T12:14:02;8.45;;;5.10;;
31798;SDS011;18374;51.136;3.502;2023-03-01T12:20:15;7.38;;;4.65;;
31798;SDS011;18374;51.136;3.502;2023-03-01T12:29:40;7.63;;;4.28;;
31798;SDS011;18374;51.136;3.502;2023-03-01T12:38:49;5.75;;;4.05;;
31798;SDS011;18374;51.136;3.502;2023-03-01T12:50:47;7.05;;;4.13;;
31798;SDS011;18374;51.136;3.502;2023-03-01T12:53:23;7.25;;;4.28;;
31798;SDS011;18374;51.136;3.502;2023-03-01T12:56:15;9.93;;;4.38;;
31798;SDS011;18374;51.136;3.502;2023-03-01T12:58:59;7.03;;;4.00;;
31798;SDS011;18374;51.136;3.502;2023-03-01T13:10:48;6.82;;;4.20;;
31798;SDS011;18374;51.136;3.502;2023-03-01T13:13:23;8.88;;;4.53;;
31798;SDS011;18374;51.136;3.502;2023-03-01T13:15:54;8.65;;;3.78;;
31798;SDS011;18374;51.136;3.502;2023-03-01T13:20:53;6.78;;;4.45;;
31798;SDS011;18374;51.136;3.502;2023-03-01T13:23:27;7.30;;;4.13;;
31798;SDS011;18374;51.136;3.502;2023-03-01T13:31:05;6.10;;;3.88;;
31798;SDS011;18374;51.136;3.502;2023-03-01T13:39:01;6.53;;;4.03;;
31798;SDS011;18374;51.136;3.502;2023-03-01T13:41:55;7.30;;;4.68;;
31798;SDS011;18374;51.136;3.502;2023-03-01T13:44:26;6.10;;;3.90;;
31798;SDS011;18374;51.136;3.502;2023-03-01T13:58:12;6.53;;;4.50;;
31798;SDS011;18374;51.136;3.502;2023-03-01T14:01:01;8.65;;;4.63;;
31798;SDS011;18374;51.136;3.502;2023-03-01T14:03:33;7.32;;;4.13;;
31798;SDS011;18374;51.136;3.502;2023-03-01T14:06:12;7.57;;;4.40;;
31798;SDS011;18374;51.136;3.502;2023-03-01T14:08:48;7.15;;;4.10;;
31798;SDS011;18374;51.136;3.502;2023-03-01T14:14:07;8.75;;;4.00;;
31798;SDS011;18374;51.136;3.502;2023-03-01T14:17:05;5.88;;;4.10;;
31798;SDS011;18374;51.136;3.502;2023-03-01T14:20:24;8.38;;;4.30;;
31798;SDS011;18374;51.136;3.502;2023-03-01T14:23:00;5.25;;;3.92;;
31798;SDS011;18374;51.136;3.502;2023-03-01T14:25:56;7.80;;;4.20;;
31798;SDS011;18374;51.136;3.502;2023-03-01T14:28:28;8.82;;;4.82;;
31798;SDS011;18374;51.136;3.502;2023-03-01T14:31:25;7.45;;;4.20;;
31798;SDS011;18374;51.136;3.502;2023-03-01T14:34:21;8.80;;;4.22;;
31798;SDS011;18374;51.136;3.502;2023-03-01T14:36:51;7.72;;;4.25;;
31798;SDS011;18374;51.136;3.502;2023-03-01T14:39:20;6.75;;;3.53;;
31798;SDS011;18374;51.136;3.502;2023-03-01T14:41:53;6.10;;;4.20;;
31798;SDS011;18374;51.136;3.502;2023-03-01T14:44:22;10.88;;;4.60;;
31798;SDS011;18374;51.136;3.502;2023-03-01T14:46:55;6.10;;;4.25;;
31798;SDS011;18374;51.136;3.502;2023-03-01T14:49:25;6.88;;;4.32;;
31798;SDS011;18374;51.136;3.502;2023-03-01T14:51:58;7.60;;;4.38;;
31798;SDS011;18374;51.136;3.502;2023-03-01T14:54:40;7.30;;;4.13;;
31798;SDS011;18374;51.136;3.502;2023-03-01T14:57:18;7.20;;;4.68;;
31798;SDS011;18374;51.136;3.502;2023-03-01T15:00:10;6.10;;;4.10;;
31798;SDS011;18374;51.136;3.502;2023-03-01T15:02:55;8.82;;;4.63;;
31798;SDS011;18374;51.136;3.502;2023-03-01T15:05:32;6.55;;;4.03;;
31798;SDS011;18374;51.136;3.502;2023-03-01T15:08:01;10.20;;;4.40;;
31798;SDS011;18374;51.136;3.502;2023-03-01T15:10:32;9.25;;;4.35;;
31798;SDS011;18374;51.136;3.502;2023-03-01T15:13:12;7.22;;;3.92;;
31798;SDS011;18374;51.136;3.502;2023-03-01T15:15:48;9.63;;;4.05;;
31798;SDS011;18374;51.136;3.502;2023-03-01T15:18:37;8.68;;;4.43;;
31798;SDS011;18374;51.136;3.502;2023-03-01T15:21:22;8.40;;;4.47;;
31798;SDS011;18374;51.136;3.502;2023-03-01T15:23:55;6.70;;;4.30;;
31798;SDS011;18374;51.136;3.502;2023-03-01T15:26:58;6.97;;;4.20;;
31798;SDS011;18374;51.136;3.502;2023-03-01T15:29:33;8.48;;;4.30;;
31798;SDS011;18374;51.136;3.502;2023-03-01T15:34:57;9.52;;;4.68;;
31798;SDS011;18374;51.136;3.502;2023-03-01T15:37:46;9.45;;;4.60;;
31798;SDS011;18374;51.136;3.502;2023-03-01T15:43:03;10.20;;;4.93;;
31798;SDS011;18374;51.136;3.502;2023-03-01T15:45:33;7.68;;;4.07;;
31798;SDS011;18374;51.136;3.502;2023-03-01T15:48:01;5.93;;;3.97;;
31798;SDS011;18374;51.136;3.502;2023-03-01T15:50:33;8.55;;;3.90;;
31798;SDS011;18374;51.136;3.502;2023-03-01T15:53:10;7.50;;;4.40;;
31798;SDS011;18374;51.136;3.502;2023-03-01T15:55:41;6.28;;;4.13;;
31798;SDS011;18374;51.136;3.502;2023-03-01T16:00:40;9.82;;;4.22;;
31798;SDS011;18374;51.136;3.502;2023-03-01T16:03:25;8.10;;;4.57;;
31798;SDS011;18374;51.136;3.502;2023-03-01T16:05:53;6.45;;;4.90;;
31798;SDS011;18374;51.136;3.502;2023-03-01T16:08:21;8.25;;;5.22;;
31798;SDS011;18374;51.136;3.502;2023-03-01T16:10:49;8.20;;;4.22;;
31798;SDS011;18374;51.136;3.502;2023-03-01T16:13:18;10.43;;;4.55;;
31798;SDS011;18374;51.136;3.502;2023-03-01T16:15:46;7.93;;;4.90;;
31798;SDS011;18374;51.136;3.502;2023-03-01T16:18:14;7.82;;;4.40;;
31798;SDS011;18374;51.136;3.502;2023-03-01T16:20:42;9.52;;;5.57;;
31798;SDS011;18374;51.136;3.502;2023-03-01T16:23:10;7.05;;;4.75;;
31798;SDS011;18374;51.136;3.502;2023-03-01T16:25:38;8.43;;;4.60;;
31798;SDS011;18374;51.136;3.502;2023-03-01T16:28:06;8.02;;;4.70;;
31798;SDS011;18374;51.136;3.502;2023-03-01T16:30:38;11.18;;;4.93;;
31798;SDS011;18374;51.136;3.502;2023-03-01T16:33:07;9.05;;;5.22;;
31798;SDS011;18374;51.136;3.502;2023-03-01T16:35:53;7.20;;;4.38;;
31798;SDS011;18374;51.136;3.502;2023-03-01T16:38:21;8.15;;;4.55;;
31798;SDS011;18374;51.136;3.502;2023-03-01T16:40:49;9.38;;;5.05;;
31798;SDS011;18374;51.136;3.502;2023-03-01T16:43:18;7.28;;;4.97;;
31798;SDS011;18374;51.136;3.502;2023-03-01T16:45:46;13.43;;;4.53;;
31798;SDS011;18374;51.136;3.502;2023-03-01T16:48:14;8.38;;;5.20;;
31798;SDS011;18374;51.136;3.502;2023-03-01T16:50:42;8.75;;;5.07;;
31798;SDS011;18374;51.136;3.502;2023-03-01T16:53:09;10.50;;;5.32;;
31798;SDS011;18374;51.136;3.502;2023-03-01T16:55:37;9.45;;;5.53;;
31798;SDS011;18374;51.136;3.502;2023-03-01T16:58:12;11.57;;;5.63;;
31798;SDS011;18374;51.136;3.502;2023-03-01T17:00:40;10.90;;;5.40;;
31798;SDS011;18374;51.136;3.502;2023-03-01T17:03:07;10.15;;;5.28;;
31798;SDS011;18374;51.136;3.502;2023-03-01T17:05:35;10.98;;;5.25;;
31798;SDS011;18374;51.136;3.502;2023-03-01T17:08:07;10.88;;;5.63;;
31798;SDS011;18374;51.136;3.502;2023-03-01T17:10:35;9.23;;;5.20;;
31798;SDS011;18374;51.136;3.502;2023-03-01T17:13:02;9.73;;;5.47;;
31798;SDS011;18374;51.136;3.502;2023-03-01T17:15:30;10.18;;;5.20;;
31798;SDS011;18374;51.136;3.502;2023-03-01T17:17:58;9.05;;;5.20;;
31798;SDS011;18374;51.136;3.502;2023-03-01T17:20:26;11.25;;;5.90;;
31798;SDS011;18374;51.136;3.502;2023-03-01T17:22:53;11.20;;;6.00;;
31798;SDS011;18374;51.136;3.502;2023-03-01T17:25:21;11.05;;;5.40;;
31798;SDS011;18374;51.136;3.502;2023-03-01T17:27:49;8.20;;;5.25;;
31798;SDS011;18374;51.136;3.502;2023-03-01T17:30:17;8.45;;;5.75;;
31798;SDS011;18374;51.136;3.502;2023-03-01T17:32:45;9.10;;;5.25;;
31798;SDS011;18374;51.136;3.502;2023-03-01T17:35:12;12.35;;;6.47;;
31798;SDS011;18374;51.136;3.502;2023-03-01T17:37:40;11.38;;;6.32;;